Maersk Weymouth — VRFS9 — position and weather

sailwx.info

Track history (hours):
 
Tides and Currents Weather Stations Pressure Air Temp Water Temp Dewpoint Dewpoint Depression Visibility Wind Speed Wind Dir Waves Ship Positions

Maersk Weymouth

Last reported at 2017-Mar-18 22:27 UTC. Time now 2017-Mar-23 06:11 UTC.
Position N 26°12' W 079°24'.

Length 175 m; draft 8.4 m.

Type: Cargo ship. MMSI: 477622100.

Date/timePositionNaut miles runAvg speedWind from/ knotsBaromVisibWave heightAir tempDewpointWater temp
2017-Mar-18 22:27N 26°12' W 079°24'32714.9
2017-Mar-18 00:33N 31°35' W 080°22'1211.6
2017-Mar-17 23:33N 31°45' W 080°30'9 9.5
2017-Mar-17 22:33N 31°52' W 080°36'9 9.0
2017-Mar-17 21:33N 31°58' W 080°44'1312.7
2017-Mar-17 20:33N 32°04' W 080°57'8 8.0
2017-Mar-17 19:33N 32°06' W 081°07'2 2.2
2017-Mar-17 18:33N 32°08' W 081°08'0 0.0
2017-Mar-17 17:33N 32°08' W 081°08'0 0.0
2017-Mar-17 16:33N 32°08' W 081°08'0 0.0
2017-Mar-17 15:33N 32°08' W 081°08'0 0.0
2017-Mar-17 14:33N 32°08' W 081°08'0 0.0
2017-Mar-17 13:33N 32°08' W 081°08'0 0.0
2017-Mar-17 12:21N 32°08' W 081°08'1 1.9
2017-Mar-17 11:33N 32°06' W 081°07'5 4.6
2017-Mar-17 10:33N 32°05' W 081°02'8 8.1
2017-Mar-17 09:33N 32°02' W 080°53'1110.8
2017-Mar-17 08:33N 31°57' W 080°42'7 6.5
2017-Mar-17 07:33N 31°57' W 080°34'3 2.7
2017-Mar-17 06:33N 31°57' W 080°31'  
2017-Mar-13 23:26N 39°17' W 075°22'1416.3
2017-Mar-13 22:33N 39°28' W 075°34'1413.7
2017-Mar-13 21:33N 39°41' W 075°31'1111.5
2017-Mar-13 20:34N 39°50' W 075°22'5 0.5
2017-Mar-13 10:33N 39°51' W 075°16'8 7.9
2017-Mar-13 09:33N 39°48' W 075°25'10 9.9
2017-Mar-13 08:33N 39°40' W 075°32'1212.2
2017-Mar-13 07:33N 39°28' W 075°34'1513.8
2017-Mar-13 06:28N 39°16' W 075°21'149 5.3
2017-Mar-12 02:14N 36°49' W 075°47'6 9.2
2017-Mar-12 01:34N 36°52' W 075°53'9 8.5
2017-Mar-12 00:33N 36°57' W 076°02'1512.4
2017-Mar-11 23:23N 36°58' W 076°20'7 8.2
2017-Mar-11 22:34N 36°52' W 076°19'0 0.1
2017-Mar-11 21:33N 36°51' W 076°20'0 0.0
2017-Mar-11 20:32N 36°51' W 076°20'0 0.0
2017-Mar-11 19:32N 36°51' W 076°20'0 0.0
2017-Mar-11 18:32N 36°51' W 076°20'0 0.0
2017-Mar-11 17:32N 36°51' W 076°20'0 0.0
2017-Mar-11 16:32N 36°51' W 076°20'0 0.0
2017-Mar-11 15:32N 36°51' W 076°20'0 0.0
2017-Mar-11 14:32N 36°51' W 076°20'0 0.0
2017-Mar-11 13:32N 36°51' W 076°20'0 0.0
2017-Mar-11 12:32N 36°51' W 076°20'0 0.0
2017-Mar-11 11:32N 36°51' W 076°20'0 0.0
2017-Mar-11 10:33N 36°51' W 076°20'7 6.5
2017-Mar-11 09:29N 36°58' W 076°20'  
Track history (hours):
 
Tides and Currents Weather Stations Pressure Air Temp Water Temp Dewpoint Dewpoint Depression Visibility Wind Speed Wind Dir Waves Ship Positions

Maersk Weymouth

Last reported at 2017-Mar-18 22:27 UTC. Time now 2017-Mar-23 06:11 UTC.
Position N 26°12' W 079°24'.

Length 175 m; draft 8.4 m.

Type: Cargo ship. MMSI: 477622100.

Date/timePositionNaut miles runAvg speedWind from/ knotsBaromVisibWave heightAir tempDewpointWater temp
2017-Mar-18 22:27N 26°12' W 079°24'32714.9
2017-Mar-18 00:33N 31°35' W 080°22'1211.6
2017-Mar-17 23:33N 31°45' W 080°30'9 9.5
2017-Mar-17 22:33N 31°52' W 080°36'9 9.0
2017-Mar-17 21:33N 31°58' W 080°44'1312.7
2017-Mar-17 20:33N 32°04' W 080°57'8 8.0
2017-Mar-17 19:33N 32°06' W 081°07'2 2.2
2017-Mar-17 18:33N 32°08' W 081°08'0 0.0
2017-Mar-17 17:33N 32°08' W 081°08'0 0.0
2017-Mar-17 16:33N 32°08' W 081°08'0 0.0
2017-Mar-17 15:33N 32°08' W 081°08'0 0.0
2017-Mar-17 14:33N 32°08' W 081°08'0 0.0
2017-Mar-17 13:33N 32°08' W 081°08'0 0.0
2017-Mar-17 12:21N 32°08' W 081°08'1 1.9
2017-Mar-17 11:33N 32°06' W 081°07'5 4.6
2017-Mar-17 10:33N 32°05' W 081°02'8 8.1
2017-Mar-17 09:33N 32°02' W 080°53'1110.8
2017-Mar-17 08:33N 31°57' W 080°42'7 6.5
2017-Mar-17 07:33N 31°57' W 080°34'3 2.7
2017-Mar-17 06:33N 31°57' W 080°31'  
2017-Mar-13 23:26N 39°17' W 075°22'1416.3
2017-Mar-13 22:33N 39°28' W 075°34'1413.7
2017-Mar-13 21:33N 39°41' W 075°31'1111.5
2017-Mar-13 20:34N 39°50' W 075°22'5 0.5
2017-Mar-13 10:33N 39°51' W 075°16'8 7.9
2017-Mar-13 09:33N 39°48' W 075°25'10 9.9
2017-Mar-13 08:33N 39°40' W 075°32'1212.2
2017-Mar-13 07:33N 39°28' W 075°34'1513.8
2017-Mar-13 06:28N 39°16' W 075°21'149 5.3
2017-Mar-12 02:14N 36°49' W 075°47'6 9.2
2017-Mar-12 01:34N 36°52' W 075°53'9 8.5
2017-Mar-12 00:33N 36°57' W 076°02'1512.4
2017-Mar-11 23:23N 36°58' W 076°20'7 8.2
2017-Mar-11 22:34N 36°52' W 076°19'0 0.1
2017-Mar-11 21:33N 36°51' W 076°20'0 0.0
2017-Mar-11 20:32N 36°51' W 076°20'0 0.0
2017-Mar-11 19:32N 36°51' W 076°20'0 0.0
2017-Mar-11 18:32N 36°51' W 076°20'0 0.0
2017-Mar-11 17:32N 36°51' W 076°20'0 0.0
2017-Mar-11 16:32N 36°51' W 076°20'0 0.0
2017-Mar-11 15:32N 36°51' W 076°20'0 0.0
2017-Mar-11 14:32N 36°51' W 076°20'0 0.0
2017-Mar-11 13:32N 36°51' W 076°20'0 0.0
2017-Mar-11 12:32N 36°51' W 076°20'0 0.0
2017-Mar-11 11:32N 36°51' W 076°20'0 0.0
2017-Mar-11 10:33N 36°51' W 076°20'7 6.5
2017-Mar-11 09:29N 36°58' W 076°20'  

Dump ship's entire track history